Time;durP1;ratioP1;P1;durP2;ratioP2;P2;SDS_P1;SDS_P2;PMS_P1;PMS_P2;Temp;Humidity;BMP_temperature;BMP_pressure;BME280_temperature;BME280_humidity;BME280_pressure;Samples;Min_cycle;Max_cycle;Signal;HPM_P1;HPM_P2
2022/03/11 00:02:10;;;;;;;15.43;8.15;;;;;;;4.54;56.12;101633.63;5228983;28;20116;-66
2022/03/11 00:04:41;;;;;;;14.10;8.20;;;;;;;4.46;57.67;101631.28;5228416;28;20491;-66
2022/03/11 00:07:14;;;;;;;17.63;8.45;;;;;;;4.36;57.44;101627.28;5225259;28;20528;-66
2022/03/11 00:09:45;;;;;;;14.30;7.82;;;;;;;4.22;60.32;101619.88;5224335;28;20038;-66
2022/03/11 00:12:16;;;;;;;14.45;8.10;;;;;;;4.37;57.22;101625.50;5226179;28;20064;-66
2022/03/11 00:14:47;;;;;;;13.55;7.78;;;;;;;4.30;58.21;101622.25;5229758;28;20053;-66
2022/03/11 00:17:19;;;;;;;14.88;8.07;;;;;;;4.18;58.31;101614.75;5233377;28;20044;-66
2022/03/11 00:19:50;;;;;;;13.90;8.02;;;;;;;4.27;58.27;101615.28;5232486;28;20037;-66
2022/03/11 00:22:22;;;;;;;12.85;8.32;;;;;;;4.30;56.91;101614.31;5231458;28;20041;-66
2022/03/11 00:24:53;;;;;;;14.63;8.82;;;;;;;4.23;56.80;101605.75;5227240;28;20780;-66
2022/03/11 00:27:24;;;;;;;14.93;8.60;;;;;;;4.27;57.07;101607.34;5232985;28;20044;-66
2022/03/11 00:29:56;;;;;;;16.42;8.50;;;;;;;4.23;58.35;101607.53;5230150;28;20513;-66
2022/03/11 00:32:27;;;;;;;18.75;8.93;;;;;;;4.17;57.52;101615.69;5236834;28;20037;-66
2022/03/11 00:34:58;;;;;;;15.63;8.20;;;;;;;4.20;57.15;101607.63;5242302;28;20116;-66
2022/03/11 00:37:30;;;;;;;14.18;8.30;;;;;;;4.19;57.61;101612.06;5241928;28;20041;-66
2022/03/11 00:40:01;;;;;;;13.88;7.90;;;;;;;4.11;58.49;101603.56;5237331;28;20034;-66
2022/03/11 00:42:33;;;;;;;15.55;8.93;;;;;;;4.10;57.88;101604.47;5230465;28;20124;-66
2022/03/11 00:45:05;;;;;;;18.00;9.32;;;;;;;4.07;58.48;101602.81;5228094;28;20026;-66
2022/03/11 00:47:36;;;;;;;15.93;9.30;;;;;;;4.06;58.34;101601.09;5232710;28;20575;-66
2022/03/11 00:50:08;;;;;;;18.45;8.77;;;;;;;4.03;58.30;101603.00;5230775;28;20065;-66
2022/03/11 00:52:40;;;;;;;16.80;8.77;;;;;;;3.92;58.96;101598.09;5233383;28;20083;-66
2022/03/11 00:55:12;;;;;;;15.60;8.98;;;;;;;3.98;58.35;101597.03;5237674;28;20029;-66
2022/03/11 00:57:43;;;;;;;17.10;9.23;;;;;;;3.93;59.60;101595.41;5235038;28;20098;-66
2022/03/11 01:00:15;;;;;;;18.13;9.32;;;;;;;3.88;59.94;101589.44;5239188;28;20131;-66
2022/03/11 01:02:47;;;;;;;16.27;9.45;;;;;;;3.87;58.80;101587.72;5233473;28;20201;-66
2022/03/11 01:05:22;;;;;;;15.75;9.50;;;;;;;3.87;58.74;101581.56;5234192;28;20106;-66
2022/03/11 01:07:53;;;;;;;17.58;9.57;;;;;;;3.81;59.37;101582.66;5248896;28;20029;-66
2022/03/11 01:10:25;;;;;;;16.42;9.70;;;;;;;3.78;60.50;101573.97;5227943;28;20097;-66
2022/03/11 01:12:56;;;;;;;16.60;8.88;;;;;;;3.77;59.32;101575.75;5226947;28;20629;-66
2022/03/11 01:15:27;;;;;;;19.95;9.50;;;;;;;3.77;60.09;101565.22;5231120;28;20045;-66
2022/03/11 01:17:59;;;;;;;19.30;9.45;;;;;;;3.68;59.44;101568.19;5241961;28;20029;-66
2022/03/11 01:20:30;;;;;;;16.42;9.65;;;;;;;3.73;59.24;101560.97;5237476;28;20185;-66
2022/03/11 01:23:01;;;;;;;18.17;9.30;;;;;;;3.69;59.33;101562.00;5234970;28;20029;-66
2022/03/11 01:25:33;;;;;;;16.42;9.02;;;;;;;3.71;59.16;101562.78;5231836;28;20029;-66
2022/03/11 01:28:04;;;;;;;17.92;8.95;;;;;;;3.73;59.11;101555.69;5224977;28;20107;-66
2022/03/11 01:30:35;;;;;;;17.77;9.38;;;;;;;3.66;59.23;101549.78;5226575;28;20637;-66
2022/03/11 01:33:07;;;;;;;17.05;9.32;;;;;;;3.68;59.54;101550.59;5227139;28;20588;-66
2022/03/11 01:35:38;;;;;;;17.17;9.60;;;;;;;3.58;61.18;101548.31;5226113;28;20376;-66
2022/03/11 01:38:09;;;;;;;18.38;9.18;;;;;;;3.50;61.53;101548.59;5230059;28;20065;-66
2022/03/11 01:40:41;;;;;;;17.50;9.70;;;;;;;3.55;59.75;101541.38;5224504;28;20135;-66
2022/03/11 01:43:14;;;;;;;18.38;9.80;;;;;;;3.60;59.81;101539.44;5226516;28;20047;-66
2022/03/11 01:45:45;;;;;;;17.08;9.35;;;;;;;3.60;59.90;101534.16;5223436;28;20032;-66
2022/03/11 01:48:17;;;;;;;16.55;8.90;;;;;;;3.57;59.62;101531.63;5224616;28;20064;-66
2022/03/11 01:50:48;;;;;;;16.25;9.60;;;;;;;3.51;60.81;101523.94;5225991;28;20029;-66
2022/03/11 01:53:20;;;;;;;16.25;9.25;;;;;;;3.47;60.11;101528.47;5224486;28;20064;-66
2022/03/11 01:55:51;;;;;;;17.30;9.40;;;;;;;3.46;59.97;101513.53;5222990;28;20564;-66
2022/03/11 01:58:23;;;;;;;17.02;9.43;;;;;;;3.47;60.07;101517.91;5226192;28;20040;-66
2022/03/11 02:00:54;;;;;;;16.35;9.52;;;;;;;3.45;61.11;101508.31;5228517;28;20540;-66
2022/03/11 02:03:25;;;;;;;17.67;9.98;;;;;;;3.41;60.04;101504.94;5226286;28;20033;-66
2022/03/11 02:06:00;;;;;;;17.40;9.05;;;;;;;3.45;60.38;101497.78;5229034;28;20374;-66
2022/03/11 02:08:31;;;;;;;16.27;8.73;;;;;;;3.42;60.40;101503.19;5229057;28;20128;-66
2022/03/11 02:11:03;;;;;;;18.48;9.65;;;;;;;3.35;61.36;101497.25;5230539;28;20468;-66
2022/03/11 02:13:51;;;;;;;14.48;8.85;;;;;;;3.34;60.54;101492.91;5229647;28;20076;-66
2022/03/11 02:16:28;;;;;;;15.25;8.75;;;;;;;3.32;60.98;101482.41;5230177;28;20064;-66
2022/03/11 02:19:00;;;;;;;15.15;9.07;;;;;;;3.29;62.16;101493.03;5235156;28;20124;-66
2022/03/11 02:21:36;;;;;;;17.17;10.13;;;;;;;3.31;61.07;101472.75;5237936;28;20493;-66
2022/03/11 02:24:09;;;;;;;15.75;8.95;;;;;;;3.25;60.71;101485.31;5240735;28;20044;-66
2022/03/11 02:26:41;;;;;;;18.48;8.93;;;;;;;3.31;60.37;101472.75;5242786;28;20114;-66
2022/03/11 02:29:12;;;;;;;17.40;9.90;;;;;;;3.25;60.35;101472.13;5242357;28;20025;-66
2022/03/11 02:31:43;;;;;;;14.70;9.07;;;;;;;3.25;60.46;101466.84;5246078;28;20029;-66
2022/03/11 02:34:15;;;;;;;17.75;8.95;;;;;;;3.13;62.00;101465.53;5235152;28;20115;-66
2022/03/11 02:36:46;;;;;;;17.98;9.82;;;;;;;3.18;60.12;101460.06;5227002;28;20064;-66
2022/03/11 02:39:18;;;;;;;19.23;9.73;;;;;;;3.18;60.86;101465.34;5228622;28;20041;-66
2022/03/11 02:41:51;;;;;;;17.40;9.07;;;;;;;3.12;60.70;101447.97;5229173;28;20120;-66
2022/03/11 02:44:23;;;;;;;15.30;8.88;;;;;;;3.12;60.12;101453.25;5245534;28;20060;-66
2022/03/11 02:46:54;;;;;;;15.90;9.07;;;;;;;3.05;60.96;101457.00;5248799;28;20024;-66
2022/03/11 02:49:27;;;;;;;14.95;8.63;;;;;;;3.10;60.19;101455.06;5240844;28;20025;-66
2022/03/11 02:51:59;;;;;;;16.95;9.10;;;;;;;3.12;59.75;101459.34;5243904;28;20543;-66
2022/03/11 02:54:30;;;;;;;13.88;8.88;;;;;;;3.07;61.29;101453.41;5244172;28;20406;-66
2022/03/11 02:57:02;;;;;;;16.63;8.77;;;;;;;3.04;60.47;101447.38;5233704;28;20036;-65
2022/03/11 02:59:33;;;;;;;15.32;8.70;;;;;;;3.00;60.71;101449.25;5242606;28;20029;-66
2022/03/11 03:02:04;;;;;;;16.83;9.73;;;;;;;3.02;61.43;101442.16;5243333;28;20037;-66
2022/03/11 03:04:35;;;;;;;19.15;8.93;;;;;;;3.05;59.88;101444.69;5247370;28;20116;-66
2022/03/11 03:07:11;;;;;;;17.60;9.45;;;;;;;3.02;61.38;101443.94;5246376;28;20513;-66
2022/03/11 03:09:42;;;;;;;19.98;10.10;;;;;;;3.03;61.50;101437.75;5240986;28;20543;-65
2022/03/11 03:12:14;;;;;;;13.85;8.13;;;;;;;3.05;61.66;101436.78;5239802;28;20038;-66
2022/03/11 03:14:45;;;;;;;17.40;9.10;;;;;;;3.06;59.93;101437.66;5243444;28;20067;-66
2022/03/11 03:17:18;;;;;;;15.80;9.68;;;;;;;3.02;60.29;101442.16;5242872;28;20506;-66
2022/03/11 03:19:50;;;;;;;15.27;8.60;;;;;;;3.11;59.55;101443.63;5235794;28;20029;-66
2022/03/11 03:22:21;;;;;;;16.05;8.70;;;;;;;3.10;59.75;101440.09;5239736;28;20459;-66
2022/03/11 03:24:53;;;;;;;14.10;8.68;;;;;;;3.05;59.45;101430.63;5244965;28;20031;-66
2022/03/11 03:27:25;;;;;;;15.73;8.98;;;;;;;3.15;59.04;101439.97;5236427;28;20104;-65
2022/03/11 03:29:56;;;;;;;17.00;9.18;;;;;;;3.09;60.23;101438.41;5235974;28;20090;-66
2022/03/11 03:32:27;;;;;;;14.95;8.65;;;;;;;3.09;60.29;101434.91;5236913;28;20589;-65
2022/03/11 03:34:59;;;;;;;21.33;9.27;;;;;;;3.12;59.24;101437.41;5239151;28;20082;-65
2022/03/11 03:37:30;;;;;;;13.77;8.25;;;;;;;3.13;58.72;101428.59;5241832;28;20068;-65
2022/03/11 03:40:02;;;;;;;17.33;9.73;;;;;;;3.06;59.50;101430.59;5240156;28;20029;-66
2022/03/11 03:42:34;;;;;;;13.98;8.32;;;;;;;3.13;58.58;101428.59;5237987;28;20155;-66
2022/03/11 03:45:06;;;;;;;15.43;8.57;;;;;;;3.11;58.93;101425.16;5235684;28;20035;-66
2022/03/11 03:47:37;;;;;;;17.25;9.48;;;;;;;3.01;60.76;101424.63;5238817;28;20064;-66
2022/03/11 03:50:09;;;;;;;16.00;8.50;;;;;;;3.02;60.49;101428.97;5232110;28;20152;-66
2022/03/11 03:52:42;;;;;;;15.32;8.40;;;;;;;3.02;59.25;101423.72;5232710;28;20028;-66
2022/03/11 03:55:13;;;;;;;14.57;8.75;;;;;;;2.97;59.63;101430.06;5235338;28;20086;-66
2022/03/11 03:57:44;;;;;;;16.13;8.70;;;;;;;2.99;59.38;101425.59;5239523;28;20470;-65
2022/03/11 04:00:15;;;;;;;17.02;8.60;;;;;;;2.93;59.04;101430.19;5234283;28;20064;-65
2022/03/11 04:02:48;;;;;;;17.02;9.05;;;;;;;2.94;59.15;101423.97;5243071;28;20086;-66
2022/03/11 04:05:20;;;;;;;18.08;8.40;;;;;;;2.93;59.10;101417.00;5238554;28;20134;-66
2022/03/11 04:07:51;;;;;;;16.00;8.80;;;;;;;3.00;59.22;101415.00;5231554;28;20033;-65
2022/03/11 04:10:22;;;;;;;16.13;8.68;;;;;;;2.89;59.36;101414.50;5228464;28;20402;-66
2022/03/11 04:12:54;;;;;;;14.80;8.25;;;;;;;2.88;59.34;101413.66;5225943;28;20140;-66
2022/03/11 04:15:26;;;;;;;14.05;7.97;;;;;;;2.90;59.35;101419.72;5222623;28;20454;-65
2022/03/11 04:17:57;;;;;;;15.90;8.30;;;;;;;2.86;58.93;101420.75;5230207;28;20342;-66
2022/03/11 04:20:28;;;;;;;15.48;8.77;;;;;;;2.94;59.73;101420.50;5227592;28;20037;-66
2022/03/11 04:22:59;;;;;;;13.70;8.10;;;;;;;2.88;59.79;101408.38;5223948;28;20782;-66
2022/03/11 04:25:31;;;;;;;14.25;8.32;;;;;;;2.96;59.09;101408.13;5221697;28;20047;-66
2022/03/11 04:28:02;;;;;;;14.18;8.20;;;;;;;2.92;59.97;101412.63;5226120;28;20398;-65
2022/03/11 04:30:33;;;;;;;15.77;7.60;;;;;;;3.01;58.66;101405.31;5225396;28;20444;-66
2022/03/11 04:33:05;;;;;;;15.85;8.20;;;;;;;3.00;58.32;101400.97;5224140;28;20111;-65
2022/03/11 04:35:36;;;;;;;14.30;8.25;;;;;;;2.97;58.54;101403.69;5227794;28;20413;-66
2022/03/11 04:38:09;;;;;;;15.65;8.05;;;;;;;2.93;58.41;101392.41;5231595;28;20029;-66
2022/03/11 04:40:40;;;;;;;12.10;7.70;;;;;;;2.89;58.57;101393.44;5231458;28;20043;-65
2022/03/11 04:43:11;;;;;;;13.90;8.00;;;;;;;2.85;58.82;101397.94;5227707;28;20049;-66
2022/03/11 04:45:42;;;;;;;15.50;8.00;;;;;;;2.90;59.19;101397.81;5222313;28;20633;-66
2022/03/11 04:48:14;;;;;;;12.43;8.15;;;;;;;2.97;58.02;101398.44;5224184;28;20163;-66
2022/03/11 04:50:46;;;;;;;14.50;8.05;;;;;;;2.92;60.13;101398.59;5228019;28;20029;-66
2022/03/11 04:53:17;;;;;;;12.15;7.20;;;;;;;2.93;60.32;101395.91;5232788;28;20024;-65
2022/03/11 04:55:49;;;;;;;14.68;8.10;;;;;;;2.99;58.30;101396.59;5227403;28;20033;-65
2022/03/11 04:58:20;;;;;;;13.98;7.72;;;;;;;2.91;59.37;101400.34;5225259;28;20750;-66
2022/03/11 05:00:51;;;;;;;12.85;7.30;;;;;;;2.99;58.09;101396.59;5225432;28;20030;-66
2022/03/11 05:03:22;;;;;;;17.23;8.10;;;;;;;3.00;58.32;101403.59;5223955;28;20078;-66
2022/03/11 05:05:54;;;;;;;15.27;7.70;;;;;;;3.02;58.99;101394.72;5225271;28;20106;-66
2022/03/11 05:08:25;;;;;;;13.02;7.35;;;;;;;3.03;57.88;101385.00;5234706;28;20039;-66
2022/03/11 05:10:57;;;;;;;14.18;7.95;;;;;;;3.03;59.17;101388.53;5226894;28;20493;-66
2022/03/11 05:13:28;;;;;;;12.95;7.60;;;;;;;3.04;57.90;101398.16;5234720;28;20497;-66
2022/03/11 05:16:00;;;;;;;12.05;7.65;;;;;;;3.06;58.15;101395.47;5224207;28;20037;-66
2022/03/11 05:18:31;;;;;;;13.27;7.68;;;;;;;2.99;59.20;101391.31;5224747;28;20033;-66
2022/03/11 05:21:02;;;;;;;12.65;7.38;;;;;;;2.98;58.65;101387.84;5224860;28;20147;-66
2022/03/11 05:23:34;;;;;;;15.40;7.68;;;;;;;2.99;58.20;101392.16;5224711;28;21339;-66
2022/03/11 05:26:07;;;;;;;13.20;7.53;;;;;;;3.03;58.27;101387.66;5223896;28;20029;-66
2022/03/11 05:28:38;;;;;;;15.87;8.13;;;;;;;2.98;58.85;101389.63;5227361;28;20123;-66
2022/03/11 05:31:10;;;;;;;13.63;7.05;;;;;;;2.99;58.40;101380.78;5224320;28;20402;-66
2022/03/11 05:33:41;;;;;;;15.18;7.65;;;;;;;3.00;59.06;101380.72;5231357;28;20064;-66
2022/03/11 05:36:12;;;;;;;14.90;7.47;;;;;;;3.02;58.94;101376.25;5229402;28;20060;-66
2022/03/11 05:38:44;;;;;;;11.30;7.20;;;;;;;3.03;58.97;101385.91;5228197;28;20052;-66
2022/03/11 05:41:15;;;;;;;13.27;7.22;;;;;;;3.04;58.82;101384.97;5231153;28;20116;-66
2022/03/11 05:43:47;;;;;;;16.45;7.93;;;;;;;2.99;58.93;101389.53;5230041;28;20037;-66
2022/03/11 05:46:18;;;;;;;15.45;8.23;;;;;;;3.03;59.61;101383.25;5229880;28;20036;-66
2022/03/11 05:48:49;;;;;;;13.07;7.05;;;;;;;2.99;59.33;101378.13;5228901;28;21070;-66
2022/03/11 05:51:21;;;;;;;13.40;7.05;;;;;;;2.99;58.92;101378.13;5229278;28;20467;-66
2022/03/11 05:53:52;;;;;;;12.82;7.32;;;;;;;3.05;58.86;101386.69;5236565;28;20042;-67
2022/03/11 05:56:23;;;;;;;14.27;7.75;;;;;;;3.04;58.92;101382.34;5229522;28;20130;-67
2022/03/11 05:58:54;;;;;;;14.00;7.88;;;;;;;3.03;59.51;101371.84;5231005;28;20068;-66
2022/03/11 06:01:26;;;;;;;13.13;7.47;;;;;;;3.05;59.56;101378.78;5227303;28;20075;-66
2022/03/11 06:03:57;;;;;;;13.32;7.45;;;;;;;3.01;59.13;101374.56;5228244;28;20029;-66
2022/03/11 06:06:30;;;;;;;13.55;7.25;;;;;;;3.04;59.91;101365.66;5228451;28;20534;-66
2022/03/11 06:09:02;;;;;;;13.75;8.45;;;;;;;3.05;59.56;101368.25;5230279;28;20072;-66
2022/03/11 06:11:33;;;;;;;14.50;7.57;;;;;;;3.06;60.27;101371.72;5232463;28;21229;-66
2022/03/11 06:14:04;;;;;;;14.07;7.55;;;;;;;3.10;59.17;101368.91;5229205;28;20049;-66
2022/03/11 06:16:35;;;;;;;12.60;7.15;;;;;;;3.14;59.63;101375.81;5233088;28;20459;-65
2022/03/11 06:19:07;;;;;;;12.57;7.50;;;;;;;3.15;59.64;101374.03;5237467;28;20120;-66
2022/03/11 06:21:38;;;;;;;15.10;7.28;;;;;;;3.21;60.19;101371.16;5244537;28;20033;-66
2022/03/11 06:24:09;;;;;;;14.35;7.47;;;;;;;3.26;59.76;101381.53;5247420;28;20025;-65
2022/03/11 06:26:41;;;;;;;14.18;7.95;;;;;;;3.26;60.65;101379.78;5243587;28;20022;-65
2022/03/11 06:29:12;;;;;;;15.30;7.25;;;;;;;3.29;60.02;101379.66;5244037;28;20033;-65
2022/03/11 06:31:44;;;;;;;13.32;7.53;;;;;;;3.36;59.70;101382.94;5247715;28;20033;-66
2022/03/11 06:34:15;;;;;;;13.10;7.68;;;;;;;3.28;60.75;101367.41;5233642;28;20034;-66
2022/03/11 06:36:46;;;;;;;12.68;8.05;;;;;;;3.34;61.40;101372.44;5242782;28;20029;-66
2022/03/11 06:39:17;;;;;;;13.60;8.05;;;;;;;3.35;60.74;101378.56;5247851;28;20069;-66
2022/03/11 06:41:49;;;;;;;13.40;7.35;;;;;;;3.42;59.61;101381.84;5241020;28;20033;-66
2022/03/11 06:44:20;;;;;;;16.23;8.30;;;;;;;3.44;60.38;101380.00;5241557;28;20029;-65
2022/03/11 06:46:51;;;;;;;14.98;7.75;;;;;;;3.48;60.41;101381.59;5240204;28;20052;-66
2022/03/11 06:49:23;;;;;;;15.10;8.55;;;;;;;3.52;60.80;101384.03;5248534;28;20383;-66
2022/03/11 06:51:54;;;;;;;13.80;8.10;;;;;;;3.49;61.12;101378.03;5241890;28;20056;-66
2022/03/11 06:54:25;;;;;;;14.57;7.70;;;;;;;3.62;60.37;101379.28;5246046;28;20051;-66
2022/03/11 06:56:57;;;;;;;14.23;7.97;;;;;;;3.52;61.05;101386.69;5240172;28;20712;-66
2022/03/11 06:59:28;;;;;;;13.85;7.88;;;;;;;3.58;60.38;101377.69;5246818;28;20525;-66
2022/03/11 07:01:59;;;;;;;15.48;8.60;;;;;;;3.60;60.06;101369.69;5249183;28;20554;-66
2022/03/11 07:04:30;;;;;;;18.70;8.32;;;;;;;3.67;59.67;101373.84;5240436;28;20041;-66
2022/03/11 07:07:03;;;;;;;13.27;7.40;;;;;;;3.68;60.68;101363.22;5245500;28;20041;-65
2022/03/11 07:09:35;;;;;;;14.73;8.10;;;;;;;3.70;59.73;101364.03;5237624;28;20041;-65
2022/03/11 07:12:06;;;;;;;14.00;7.65;;;;;;;3.74;60.58;101362.13;5246723;28;20087;-66
2022/03/11 07:14:38;;;;;;;14.55;8.20;;;;;;;3.77;59.73;101358.50;5247596;28;20437;-66
2022/03/11 07:17:09;;;;;;;16.30;8.52;;;;;;;3.80;59.95;101361.03;5238165;28;20120;-66
2022/03/11 07:19:40;;;;;;;13.82;8.48;;;;;;;3.83;59.83;101358.25;5248223;28;20131;-66
2022/03/11 07:22:12;;;;;;;17.88;8.60;;;;;;;3.93;58.96;101357.81;5237188;28;20035;-66
2022/03/11 07:24:44;;;;;;;15.60;8.43;;;;;;;3.95;60.04;101356.88;5225848;28;20025;-66
2022/03/11 07:27:16;;;;;;;15.95;8.27;;;;;;;3.99;60.05;101361.09;5233958;28;20380;-66
2022/03/11 07:29:47;;;;;;;18.10;8.70;;;;;;;4.03;59.26;101360.94;5233834;28;20025;-66
2022/03/11 07:32:18;;;;;;;15.18;8.38;;;;;;;4.07;59.97;101356.41;5246014;28;20075;-66
2022/03/11 07:34:49;;;;;;;15.10;8.65;;;;;;;4.19;59.54;101366.44;5252388;28;20064;-66
2022/03/11 07:37:21;;;;;;;14.20;8.43;;;;;;;4.21;59.11;101361.94;5252694;28;20487;-66
2022/03/11 07:39:52;;;;;;;14.73;8.10;;;;;;;4.29;58.80;101366.91;5248628;28;20483;-66
2022/03/11 07:42:23;;;;;;;15.82;8.30;;;;;;;4.33;59.59;101365.84;5249748;28;20288;-66
2022/03/11 07:44:54;;;;;;;14.23;8.35;;;;;;;4.36;59.39;101364.88;5250760;28;20056;-66
2022/03/11 07:47:26;;;;;;;15.15;9.00;;;;;;;4.39;59.78;101357.69;5250979;28;20039;-66
2022/03/11 07:49:57;;;;;;;16.70;8.77;;;;;;;4.46;59.32;101358.28;5250328;28;20037;-66
2022/03/11 07:52:28;;;;;;;19.73;9.18;;;;;;;4.48;59.39;101362.56;5251491;28;20078;-66
2022/03/11 07:55:00;;;;;;;16.83;8.90;;;;;;;4.58;59.38;101360.38;5252876;28;20040;-66
2022/03/11 07:57:32;;;;;;;16.90;9.27;;;;;;;4.63;58.58;101350.47;5250958;28;20068;-66
2022/03/11 08:00:06;;;;;;;19.48;9.05;;;;;;;4.71;58.75;101344.84;5244789;28;20049;-66
2022/03/11 08:02:39;;;;;;;16.58;9.35;;;;;;;4.84;58.08;101347.81;5250523;28;20025;-66
2022/03/11 08:05:14;;;;;;;15.50;9.43;;;;;;;4.83;58.61;101339.03;5254016;28;20075;-66
2022/03/11 08:07:50;;;;;;;16.65;9.20;;;;;;;4.94;57.69;101337.69;5251999;28;20021;-66
2022/03/11 08:10:21;;;;;;;15.98;9.07;;;;;;;4.98;57.98;101333.97;5246775;28;20503;-66
2022/03/11 08:12:53;;;;;;;18.80;9.48;;;;;;;4.94;59.07;101327.13;5251376;28;20122;-66
2022/03/11 08:15:24;;;;;;;28.15;10.13;;;;;;;5.05;57.23;101322.19;5251999;28;20033;-66
2022/03/11 08:17:56;;;;;;;25.70;10.25;;;;;;;5.16;58.45;101332.28;5248931;28;20034;-66
2022/03/11 08:20:27;;;;;;;29.23;10.38;;;;;;;5.21;57.86;101339.06;5251320;28;20052;-66
2022/03/11 08:22:58;;;;;;;21.40;10.05;;;;;;;5.30;56.83;101333.34;5249799;28;20056;-67
2022/03/11 08:25:30;;;;;;;15.75;9.30;;;;;;;5.31;58.27;101328.91;5251026;28;20142;-66
2022/03/11 08:28:04;;;;;;;20.15;10.23;;;;;;;5.36;57.31;101334.84;5250213;28;20037;-66
2022/03/11 08:30:39;;;;;;;15.27;9.85;;;;;;;5.39;57.54;101332.09;5249423;28;20028;-66
2022/03/11 08:33:11;;;;;;;18.80;10.27;;;;;;;5.58;56.60;101325.91;5251201;28;20345;-66
2022/03/11 08:35:43;;;;;;;16.05;9.43;;;;;;;5.57;57.50;101330.34;5246949;28;20036;-66
2022/03/11 08:38:14;;;;;;;17.98;9.70;;;;;;;5.64;57.06;101330.91;5249738;28;20033;-66
2022/03/11 08:40:46;;;;;;;17.90;9.60;;;;;;;5.77;56.34;101316.16;5246642;28;20063;-66
2022/03/11 08:43:18;;;;;;;15.63;9.95;;;;;;;5.85;56.15;101310.50;5253215;28;20481;-66
2022/03/11 08:45:50;;;;;;;17.15;10.05;;;;;;;5.89;57.36;101315.53;5251519;28;20033;-66
2022/03/11 08:48:21;;;;;;;15.38;9.88;;;;;;;5.95;57.26;101311.75;5255466;28;20051;-66
2022/03/11 08:50:53;;;;;;;21.02;10.38;;;;;;;6.11;55.68;101316.28;5254409;28;20033;-66
2022/03/11 08:53:24;;;;;;;20.88;10.43;;;;;;;6.22;55.49;101320.13;5254324;28;20028;-66
2022/03/11 08:55:55;;;;;;;18.88;9.52;;;;;;;6.30;56.58;101317.06;5252668;28;20379;-66
2022/03/11 08:58:27;;;;;;;18.85;10.52;;;;;;;6.39;57.09;101318.41;5254207;28;20437;-66
2022/03/11 09:00:58;;;;;;;18.90;10.30;;;;;;;6.48;56.75;101316.16;5253286;28;20517;-66
2022/03/11 09:03:29;;;;;;;18.70;10.00;;;;;;;6.66;54.94;101310.81;5253008;28;20044;-66
2022/03/11 09:06:02;;;;;;;19.20;10.07;;;;;;;6.74;55.26;101303.31;5253441;28;20450;-66
2022/03/11 09:08:33;;;;;;;19.25;10.57;;;;;;;6.85;54.82;101298.28;5255747;28;20028;-66
2022/03/11 09:11:05;;;;;;;18.55;10.15;;;;;;;7.01;54.60;101300.09;5253720;28;20035;-66
2022/03/11 09:13:36;;;;;;;21.52;9.85;;;;;;;7.09;54.37;101291.72;5253479;28;20419;-66
2022/03/11 09:16:07;;;;;;;18.88;10.98;;;;;;;7.21;54.72;101297.22;5254448;28;20029;-66
2022/03/11 09:18:38;;;;;;;17.08;10.40;;;;;;;7.39;53.11;101299.81;5254365;28;20060;-67
2022/03/11 09:21:10;;;;;;;17.25;9.80;;;;;;;7.52;53.59;101295.50;5255047;28;20651;-66
2022/03/11 09:23:42;;;;;;;20.70;10.02;;;;;;;7.59;54.59;101286.28;5253138;28;20033;-66
2022/03/11 09:26:13;;;;;;;19.35;10.80;;;;;;;7.58;54.51;101289.84;5253473;28;20155;-66
2022/03/11 09:28:45;;;;;;;16.98;10.25;;;;;;;7.82;53.55;101287.59;5253227;28;20466;-66
2022/03/11 09:31:16;;;;;;;19.80;10.68;;;;;;;7.90;53.31;101283.63;5254357;28;20487;-66
2022/03/11 09:33:48;;;;;;;17.20;10.32;;;;;;;7.97;52.89;101277.84;5253694;28;20419;-66
2022/03/11 09:36:19;;;;;;;17.00;10.38;;;;;;;8.03;53.35;101282.84;5251163;28;20120;-67
2022/03/11 09:38:51;;;;;;;19.83;10.52;;;;;;;8.09;53.05;101278.09;5252142;28;20114;-66
2022/03/11 09:41:27;;;;;;;16.65;10.52;;;;;;;8.20;52.84;101275.66;5251645;28;20056;-66
2022/03/11 09:43:58;;;;;;;15.98;10.55;;;;;;;8.30;52.63;101271.47;5255397;28;20041;-66
2022/03/11 09:46:33;;;;;;;17.08;10.05;;;;;;;8.41;52.92;101270.84;5249656;28;20025;-66
2022/03/11 09:49:04;;;;;;;;;;;;;;;8.37;54.06;101271.97;5255441;28;20021;-67
2022/03/11 09:51:36;;;;;;;18.08;10.18;;;;;;;8.65;51.28;101257.91;5250332;28;20360;-66
2022/03/11 09:54:09;;;;;;;17.30;9.88;;;;;;;8.79;51.85;101255.22;5253527;28;20078;-66
2022/03/11 09:56:42;;;;;;;16.42;9.98;;;;;;;8.88;52.44;101237.84;5251633;28;20064;-66
2022/03/11 09:59:13;;;;;;;14.45;9.38;;;;;;;8.99;51.70;101243.34;5253355;28;20051;-66
2022/03/11 10:01:44;;;;;;;16.90;9.60;;;;;;;8.94;53.38;101236.59;5254489;28;20032;-66
2022/03/11 10:04:16;;;;;;;21.58;10.75;;;;;;;9.18;50.92;101244.81;5254238;28;20395;-66
2022/03/11 10:06:48;;;;;;;16.38;10.13;;;;;;;9.30;50.43;101241.38;5252884;28;20020;-66
2022/03/11 10:09:19;;;;;;;18.83;10.25;;;;;;;9.41;51.03;101233.53;5250919;28;20288;-66
2022/03/11 10:11:53;;;;;;;18.40;10.32;;;;;;;9.53;50.21;101231.88;5249239;28;20116;-66
2022/03/11 10:14:35;;;;;;;17.42;10.38;;;;;;;9.54;51.48;101233.56;5253726;28;20045;-66
2022/03/11 10:17:20;;;;;;;18.13;10.85;;;;;;;9.61;50.97;101228.69;5252055;28;20501;-66
2022/03/11 10:19:52;;;;;;;;;;;;;;;9.58;52.18;101224.41;5258120;28;20025;-66
2022/03/11 10:22:24;;;;;;;18.73;10.60;;;;;;;9.72;51.24;101217.31;5255377;28;19920;-67
2022/03/11 10:24:56;;;;;;;19.85;10.25;;;;;;;9.89;49.75;101210.84;5255597;28;20056;-66
2022/03/11 10:27:27;;;;;;;15.50;10.23;;;;;;;9.85;51.65;101217.34;5253693;28;20119;-67
2022/03/11 10:30:13;;;;;;;16.25;10.30;;;;;;;10.00;50.74;101219.81;5250089;28;20029;-66
2022/03/11 10:32:52;;;;;;;18.33;10.18;;;;;;;10.14;50.04;101218.91;5252234;28;20115;-67
2022/03/11 10:35:34;;;;;;;18.90;10.23;;;;;;;10.23;49.95;101203.22;5255161;28;20036;-67
2022/03/11 10:38:13;;;;;;;18.02;10.00;;;;;;;10.41;48.83;101212.63;5251464;28;20102;-66
2022/03/11 10:40:57;;;;;;;17.48;9.82;;;;;;;10.44;50.46;101203.56;5251844;28;20028;-67
2022/03/11 10:43:30;;;;;;;19.15;10.68;;;;;;;10.50;50.76;101197.78;5253357;28;20056;-67
2022/03/11 10:46:01;;;;;;;19.17;10.13;;;;;;;10.62;49.41;101194.25;5254518;28;20025;-67
2022/03/11 10:48:51;;;;;;;19.20;10.88;;;;;;;10.70;49.04;101191.03;5253822;28;20060;-67
2022/03/11 10:51:28;;;;;;;17.60;10.15;;;;;;;10.87;49.30;101192.50;5254075;28;20029;-67
2022/03/11 10:54:01;;;;;;;15.40;9.82;;;;;;;10.87;49.91;101187.16;5253719;28;20028;-67
2022/03/11 10:56:39;;;;;;;15.57;9.98;;;;;;;10.91;49.78;101175.28;5253590;28;20410;-67
2022/03/11 10:59:23;;;;;;;17.73;10.15;;;;;;;11.02;49.27;101163.84;5255655;28;20467;-67
2022/03/11 11:01:57;;;;;;;;;;;;;;;10.97;49.67;101167.69;5252532;28;20029;-67
2022/03/11 11:04:28;;;;;;;17.73;10.73;;;;;;;11.21;49.19;101160.66;5255491;28;19917;-67
2022/03/11 11:06:59;;;;;;;17.73;10.45;;;;;;;11.22;48.11;101173.03;5254020;28;20486;-67
2022/03/11 11:09:31;;;;;;;18.40;11.05;;;;;;;11.24;48.38;101161.28;5253012;28;20063;-67
2022/03/11 11:12:03;;;;;;;16.60;10.95;;;;;;;11.27;48.38;101160.19;5253368;28;20037;-67
2022/03/11 11:14:34;;;;;;;17.63;11.10;;;;;;;11.40;48.46;101165.47;5254670;28;20045;-67
2022/03/11 11:17:06;;;;;;;22.23;11.27;;;;;;;11.41;47.72;101173.38;5252720;28;20068;-67
2022/03/11 11:19:38;;;;;;;17.55;11.05;;;;;;;11.45;46.96;101172.19;5254596;28;20462;-67
2022/03/11 11:22:10;;;;;;;17.77;10.27;;;;;;;11.52;47.40;101164.53;5247555;28;20037;-67
2022/03/11 11:24:41;;;;;;;19.13;10.90;;;;;;;11.55;47.82;101151.81;5250341;28;20040;-67
2022/03/11 11:27:14;;;;;;;20.50;11.75;;;;;;;11.60;46.71;101147.94;5250962;28;20090;-67
2022/03/11 11:29:48;;;;;;;16.33;11.65;;;;;;;11.63;47.33;101153.06;5239595;28;20035;-67
2022/03/11 11:32:20;;;;;;;17.27;11.07;;;;;;;11.55;47.81;101141.13;5239106;28;20115;-67
2022/03/11 11:34:52;;;;;;;20.02;12.77;;;;;;;11.67;47.31;101144.69;5248921;28;20116;-67
2022/03/11 11:37:37;;;;;;;18.13;11.30;;;;;;;11.68;47.27;101133.03;5247742;28;20033;-67
2022/03/11 11:40:28;;;;;;;18.95;12.15;;;;;;;11.78;47.49;101125.16;5246283;28;20508;-67
2022/03/11 11:43:26;;;;;;;20.52;11.00;;;;;;;11.84;46.74;101123.84;5247510;28;20025;-68
2022/03/11 11:46:11;;;;;;;20.85;11.60;;;;;;;11.96;46.57;101117.53;5249504;28;20035;-68
2022/03/11 11:48:45;;;;;;;18.63;12.18;;;;;;;11.96;47.43;101122.91;5246101;28;20475;-68